createdAt,value
2022-11-17T00:00:48.254Z,92.72
2022-11-17T00:01:48.265Z,92.74
2022-11-17T00:02:48.344Z,92.76
2022-11-17T00:03:48.239Z,92.77
2022-11-17T00:04:48.218Z,92.80
2022-11-17T00:05:48.254Z,92.80
2022-11-17T00:06:48.224Z,92.83
2022-11-17T00:07:48.186Z,92.85
2022-11-17T00:08:48.258Z,92.86
2022-11-17T00:09:48.170Z,92.87
2022-11-17T00:10:48.164Z,92.90
2022-11-17T00:11:48.170Z,92.90
2022-11-17T00:12:48.160Z,92.92
2022-11-17T00:13:48.167Z,92.93
2022-11-17T00:14:48.117Z,92.94
2022-11-17T00:15:48.130Z,92.94
2022-11-17T00:16:48.102Z,92.94
2022-11-17T00:17:48.203Z,92.95
2022-11-17T00:18:48.099Z,92.94
2022-11-17T00:19:48.111Z,92.95
2022-11-17T00:20:48.162Z,92.96
2022-11-17T00:21:48.081Z,92.96
2022-11-17T00:22:48.047Z,92.97
2022-11-17T00:23:48.394Z,92.96
2022-11-17T00:24:48.050Z,92.89
2022-11-17T00:25:48.016Z,92.74
2022-11-17T00:26:48.020Z,92.62
2022-11-17T00:27:48.060Z,92.54
2022-11-17T00:28:48.027Z,92.47
2022-11-17T00:29:47.982Z,92.43
2022-11-17T00:30:47.988Z,92.43
2022-11-17T00:31:47.954Z,92.43
2022-11-17T00:32:48.109Z,92.48
2022-11-17T00:33:47.943Z,92.55
2022-11-17T00:34:47.931Z,92.57
2022-11-17T00:35:47.916Z,92.58
2022-11-17T00:36:47.912Z,92.56
2022-11-17T00:37:47.922Z,92.53
2022-11-17T00:38:47.898Z,92.49
2022-11-17T00:39:47.881Z,92.47
2022-11-17T00:40:47.906Z,92.45
2022-11-17T00:41:47.855Z,92.43
2022-11-17T00:42:47.852Z,92.40
2022-11-17T00:43:47.834Z,92.38
2022-11-17T00:44:47.876Z,92.35
2022-11-17T00:45:47.877Z,92.31
2022-11-17T00:46:47.829Z,92.23
2022-11-17T00:47:47.790Z,92.19
2022-11-17T00:48:47.800Z,92.16
2022-11-17T00:49:47.795Z,92.14
2022-11-17T00:50:47.777Z,92.13
2022-11-17T00:51:47.766Z,92.13
2022-11-17T00:52:47.849Z,92.12
2022-11-17T00:53:47.730Z,92.12
2022-11-17T00:54:47.739Z,92.12
2022-11-17T00:55:47.862Z,92.15
2022-11-17T00:56:47.777Z,92.15
2022-11-17T00:57:47.701Z,92.18
2022-11-17T00:58:47.740Z,92.21
2022-11-17T00:59:47.676Z,92.21
2022-11-17T01:00:47.712Z,92.22
2022-11-17T01:01:47.771Z,92.24
2022-11-17T01:02:47.656Z,92.23
2022-11-17T01:03:47.634Z,92.21
2022-11-17T01:04:47.659Z,92.21
2022-11-17T01:05:47.734Z,92.19
2022-11-17T01:06:47.611Z,92.20
2022-11-17T01:07:47.617Z,92.21
2022-11-17T01:08:47.592Z,92.19
2022-11-17T01:09:47.602Z,92.18
2022-11-17T01:10:47.603Z,92.17
2022-11-17T01:11:47.579Z,92.18
2022-11-17T01:12:47.566Z,92.18
2022-11-17T01:13:47.550Z,92.17
2022-11-17T01:14:47.534Z,92.16
2022-11-17T01:15:47.566Z,92.16
2022-11-17T01:16:47.549Z,92.14
2022-11-17T01:17:47.526Z,92.13
2022-11-17T01:18:47.531Z,92.11
2022-11-17T01:19:47.497Z,92.10
2022-11-17T01:20:47.508Z,92.07
2022-11-17T01:21:47.484Z,92.03
2022-11-17T01:22:47.510Z,92.01
2022-11-17T01:23:47.449Z,92.03
2022-11-17T01:24:47.441Z,92.02
2022-11-17T01:25:47.419Z,92.02
2022-11-17T01:26:47.447Z,92.04
2022-11-17T01:27:47.472Z,92.03
2022-11-17T01:28:47.390Z,92.04
2022-11-17T01:29:47.374Z,92.06
2022-11-17T01:30:47.384Z,92.08
2022-11-17T01:31:47.411Z,92.15
2022-11-17T01:32:47.350Z,92.22
2022-11-17T01:33:47.350Z,92.26
2022-11-17T01:34:47.356Z,92.32
2022-11-17T01:35:47.326Z,92.33
2022-11-17T01:36:47.364Z,92.37
2022-11-17T01:37:47.313Z,92.40
2022-11-17T01:38:47.315Z,92.40
2022-11-17T01:39:47.323Z,92.40
2022-11-17T01:40:47.294Z,92.36
2022-11-17T01:41:47.301Z,92.35
2022-11-17T01:42:47.290Z,92.36
2022-11-17T01:43:47.248Z,92.34
2022-11-17T01:44:47.239Z,92.35
2022-11-17T01:45:47.242Z,92.33
2022-11-17T01:46:47.219Z,92.31
2022-11-17T01:47:47.316Z,92.30
2022-11-17T01:48:47.220Z,92.31
2022-11-17T01:49:47.190Z,92.30
2022-11-17T01:50:47.198Z,92.26
2022-11-17T01:51:47.202Z,92.27
2022-11-17T01:52:47.176Z,92.27
2022-11-17T01:53:47.139Z,92.26
2022-11-17T01:54:47.131Z,92.27
2022-11-17T01:55:47.129Z,92.27
2022-11-17T01:56:47.120Z,92.25
2022-11-17T01:57:47.122Z,92.26
2022-11-17T01:58:47.111Z,92.25
2022-11-17T01:59:47.197Z,92.23
2022-11-17T02:00:47.085Z,92.23
2022-11-17T02:01:47.123Z,92.21
2022-11-17T02:02:47.100Z,92.22
2022-11-17T02:03:47.078Z,92.18
2022-11-17T02:04:47.057Z,92.18
2022-11-17T02:05:47.095Z,92.16
2022-11-17T02:06:47.014Z,92.15
2022-11-17T02:07:47.067Z,92.14
2022-11-17T02:08:46.998Z,92.14
2022-11-17T02:09:47.026Z,92.13
2022-11-17T02:10:51.468Z,92.10
2022-11-17T02:11:46.960Z,92.10
2022-11-17T02:12:47.127Z,92.10
2022-11-17T02:13:46.963Z,92.11
2022-11-17T02:14:46.938Z,92.09
2022-11-17T02:15:46.984Z,92.08
2022-11-17T02:16:46.940Z,92.08
2022-11-17T02:17:46.921Z,92.05
2022-11-17T02:18:46.947Z,92.01
2022-11-17T02:19:47.010Z,92.01
2022-11-17T02:20:46.882Z,92.03
2022-11-17T02:21:46.882Z,92.01
2022-11-17T02:22:46.865Z,92.01
2022-11-17T02:23:46.907Z,91.99
2022-11-17T02:24:46.978Z,91.97
2022-11-17T02:25:46.827Z,91.99
2022-11-17T02:26:46.839Z,91.97
2022-11-17T02:27:46.851Z,91.97
2022-11-17T02:28:46.816Z,91.94
2022-11-17T02:29:46.799Z,91.93
2022-11-17T02:30:46.780Z,91.93
2022-11-17T02:31:46.783Z,91.90
2022-11-17T02:32:46.784Z,91.89
2022-11-17T02:33:46.853Z,91.89
2022-11-17T02:34:46.820Z,91.89
2022-11-17T02:35:46.757Z,91.87
2022-11-17T02:36:46.716Z,91.86
2022-11-17T02:37:46.720Z,91.86
2022-11-17T02:38:46.717Z,91.81
2022-11-17T02:39:46.724Z,91.79
2022-11-17T02:40:46.688Z,91.77
2022-11-17T02:41:46.678Z,91.73
2022-11-17T02:42:46.657Z,91.66
2022-11-17T02:43:46.725Z,91.58
2022-11-17T02:44:46.668Z,91.53
2022-11-17T02:45:46.631Z,91.49
2022-11-17T02:46:46.647Z,91.49
2022-11-17T02:47:46.646Z,91.49
2022-11-17T02:48:46.597Z,91.44
2022-11-17T02:49:46.591Z,91.43
2022-11-17T02:50:46.585Z,91.40
2022-11-17T02:51:46.607Z,91.42
2022-11-17T02:52:46.568Z,91.42
2022-11-17T02:53:46.579Z,91.41
2022-11-17T02:54:46.581Z,91.37
2022-11-17T02:55:46.529Z,91.39
2022-11-17T02:56:46.558Z,91.42
2022-11-17T02:57:46.528Z,91.39
2022-11-17T02:58:46.539Z,91.38
2022-11-17T02:59:46.491Z,91.37
2022-11-17T03:00:46.494Z,91.37
2022-11-17T03:01:46.513Z,91.40
2022-11-17T03:02:46.493Z,91.40
2022-11-17T03:03:46.440Z,91.40
2022-11-17T03:04:46.477Z,91.36
2022-11-17T03:05:46.448Z,91.37
2022-11-17T03:06:46.431Z,91.36
2022-11-17T03:07:46.425Z,91.37
2022-11-17T03:08:46.422Z,91.41
2022-11-17T03:09:46.381Z,91.41
2022-11-17T03:10:46.461Z,91.45
2022-11-17T03:11:46.394Z,91.47
2022-11-17T03:12:46.354Z,91.53
2022-11-17T03:13:46.402Z,91.60
2022-11-17T03:14:46.346Z,91.67
2022-11-17T03:15:46.327Z,91.73
2022-11-17T03:16:46.357Z,91.76
2022-11-17T03:17:46.309Z,91.81
2022-11-17T03:18:46.315Z,91.84
2022-11-17T03:19:46.302Z,91.85
2022-11-17T03:20:46.292Z,91.83
2022-11-17T03:21:46.300Z,91.78
2022-11-17T03:22:46.266Z,91.73
2022-11-17T03:23:46.279Z,91.69
2022-11-17T03:24:46.282Z,91.65
2022-11-17T03:25:46.258Z,91.59
2022-11-17T03:26:46.228Z,91.55
2022-11-17T03:27:46.234Z,91.49
2022-11-17T03:28:46.201Z,91.51
2022-11-17T03:29:46.210Z,91.51
2022-11-17T03:30:46.246Z,91.52
2022-11-17T03:31:46.184Z,91.52
2022-11-17T03:32:46.175Z,91.56
2022-11-17T03:33:46.173Z,91.56
2022-11-17T03:34:46.148Z,91.55
2022-11-17T03:35:50.455Z,91.55
2022-11-17T03:36:46.124Z,91.55
2022-11-17T03:37:46.117Z,91.56
2022-11-17T03:38:46.099Z,91.57
2022-11-17T03:39:46.098Z,91.63
2022-11-17T03:40:46.093Z,91.66
2022-11-17T03:41:46.093Z,91.70
2022-11-17T03:42:46.087Z,91.75
2022-11-17T03:43:46.096Z,91.82
2022-11-17T03:44:46.050Z,91.85
2022-11-17T03:45:46.032Z,91.87
2022-11-17T03:46:46.013Z,91.89
2022-11-17T03:47:46.043Z,91.91
2022-11-17T03:48:46.076Z,91.92
2022-11-17T03:49:46.036Z,91.90
2022-11-17T03:50:46.035Z,91.93
2022-11-17T03:51:45.992Z,91.94
2022-11-17T03:52:45.961Z,91.92
2022-11-17T03:53:45.992Z,91.92
2022-11-17T03:54:45.942Z,91.92
2022-11-17T03:55:45.952Z,91.93
2022-11-17T03:56:45.917Z,91.95
2022-11-17T03:57:45.942Z,91.95
2022-11-17T03:58:45.917Z,91.98
2022-11-17T03:59:45.904Z,92.00
2022-11-17T04:00:45.897Z,92.01
2022-11-17T04:01:45.956Z,92.01
2022-11-17T04:02:45.907Z,92.02
2022-11-17T04:03:45.869Z,92.03
2022-11-17T04:04:45.842Z,92.01
2022-11-17T04:05:45.836Z,91.99
2022-11-17T04:06:45.852Z,92.01
2022-11-17T04:07:45.846Z,92.02
2022-11-17T04:08:45.852Z,92.02
2022-11-17T04:09:45.801Z,92.03
2022-11-17T04:10:45.777Z,92.07
2022-11-17T04:11:45.793Z,92.07
2022-11-17T04:12:45.802Z,92.13
2022-11-17T04:13:45.780Z,92.17
2022-11-17T04:14:45.744Z,92.21
2022-11-17T04:15:45.766Z,92.22
2022-11-17T04:16:45.716Z,92.22
2022-11-17T04:17:45.755Z,92.21
2022-11-17T04:18:45.721Z,92.21
2022-11-17T04:19:45.738Z,92.21
2022-11-17T04:20:45.698Z,92.20
2022-11-17T04:21:45.680Z,92.19
2022-11-17T04:22:45.683Z,92.17
2022-11-17T04:23:45.692Z,92.15
2022-11-17T04:24:45.659Z,92.14
2022-11-17T04:25:45.664Z,92.11
2022-11-17T04:26:45.630Z,92.08
2022-11-17T04:27:45.628Z,92.06
2022-11-17T04:28:45.644Z,92.01
2022-11-17T04:29:45.624Z,91.95
2022-11-17T04:30:45.616Z,91.88
2022-11-17T04:31:45.640Z,91.82
2022-11-17T04:32:45.579Z,91.78
2022-11-17T04:33:45.614Z,91.75
2022-11-17T04:34:45.644Z,91.69
2022-11-17T04:35:45.584Z,91.70
2022-11-17T04:36:45.534Z,91.68
2022-11-17T04:37:45.520Z,91.68
2022-11-17T04:38:45.610Z,91.66
2022-11-17T04:39:45.521Z,91.67
2022-11-17T04:40:45.511Z,91.67
2022-11-17T04:41:45.531Z,91.69
2022-11-17T04:42:45.572Z,91.68
2022-11-17T04:43:45.486Z,91.71
2022-11-17T04:44:45.471Z,91.74
2022-11-17T04:45:45.436Z,91.72
2022-11-17T04:46:45.669Z,91.74
2022-11-17T04:47:45.415Z,91.73
2022-11-17T04:48:45.422Z,91.72
2022-11-17T04:49:45.422Z,91.74
2022-11-17T04:50:45.385Z,91.76
2022-11-17T04:51:45.396Z,91.76
2022-11-17T04:52:45.381Z,91.79
2022-11-17T04:53:45.368Z,91.80
2022-11-17T04:54:45.368Z,91.83
2022-11-17T04:55:45.345Z,91.86
2022-11-17T04:56:45.332Z,91.89
2022-11-17T04:57:45.424Z,91.90
2022-11-17T04:58:45.325Z,91.91
2022-11-17T04:59:45.344Z,91.95
2022-11-17T05:00:45.282Z,91.98
2022-11-17T05:01:45.351Z,92.00
2022-11-17T05:02:45.359Z,92.04
2022-11-17T05:03:45.257Z,92.04
2022-11-17T05:04:45.265Z,92.04
2022-11-17T05:05:45.281Z,92.06
2022-11-17T05:06:45.248Z,92.07
2022-11-17T05:07:45.233Z,92.08
2022-11-17T05:08:45.206Z,92.10
2022-11-17T05:09:45.200Z,92.14
2022-11-17T05:10:45.251Z,92.16
2022-11-17T05:11:45.195Z,92.20
2022-11-17T05:12:45.198Z,92.21
2022-11-17T05:13:45.217Z,92.23
2022-11-17T05:14:45.169Z,92.24
2022-11-17T05:15:45.138Z,92.28
2022-11-17T05:16:45.171Z,92.32
2022-11-17T05:17:45.152Z,92.35
2022-11-17T05:18:45.118Z,92.38
2022-11-17T05:19:45.106Z,92.38
2022-11-17T05:20:45.105Z,92.41
2022-11-17T05:21:45.114Z,92.41
2022-11-17T05:22:45.082Z,92.44
2022-11-17T05:23:45.102Z,92.47
2022-11-17T05:24:45.072Z,92.48
2022-11-17T05:25:45.157Z,92.50
2022-11-17T05:26:45.027Z,92.50
2022-11-17T05:27:45.076Z,92.52
2022-11-17T05:28:45.028Z,92.53
2022-11-17T05:29:45.020Z,92.52
2022-11-17T05:30:45.014Z,92.54
2022-11-17T05:31:45.012Z,92.54
2022-11-17T05:32:44.982Z,92.54
2022-11-17T05:33:45.213Z,92.53
2022-11-17T05:34:44.949Z,92.52
2022-11-17T05:35:45.071Z,92.50
2022-11-17T05:36:44.936Z,92.51
2022-11-17T05:37:44.921Z,92.53
2022-11-17T05:38:45.027Z,92.51
2022-11-17T05:39:44.907Z,92.51
2022-11-17T05:40:44.937Z,92.53
2022-11-17T05:41:44.910Z,92.54
2022-11-17T05:42:44.911Z,92.54
2022-11-17T05:43:44.899Z,92.59
2022-11-17T05:44:44.853Z,92.58
2022-11-17T05:45:44.931Z,92.61
2022-11-17T05:46:44.848Z,92.63
2022-11-17T05:47:45.422Z,92.63
2022-11-17T05:48:44.892Z,92.62
2022-11-17T05:49:44.824Z,92.66
2022-11-17T05:50:44.826Z,92.64
2022-11-17T05:51:47.454Z,92.66
2022-11-17T05:52:44.786Z,92.65
2022-11-17T05:53:51.727Z,92.67
2022-11-17T05:54:44.752Z,92.68
2022-11-17T05:55:44.762Z,92.68
2022-11-17T05:56:44.750Z,92.70
2022-11-17T05:57:44.736Z,92.72
2022-11-17T05:58:44.717Z,92.72
2022-11-17T05:59:44.749Z,92.75
2022-11-17T06:00:44.634Z,92.77
2022-11-17T06:01:44.719Z,92.78
2022-11-17T06:02:44.703Z,92.81
2022-11-17T06:03:44.657Z,92.79
2022-11-17T06:04:44.656Z,92.81
2022-11-17T06:05:44.704Z,92.81
2022-11-17T06:06:44.595Z,92.78
2022-11-17T06:07:44.616Z,92.76
2022-11-17T06:08:44.642Z,92.74
2022-11-17T06:09:44.557Z,92.75
2022-11-17T06:10:44.554Z,92.70
2022-11-17T06:11:44.539Z,92.69
2022-11-17T06:12:44.528Z,92.68
2022-11-17T06:13:44.543Z,92.65
2022-11-17T06:14:44.499Z,92.62
2022-11-17T06:15:44.640Z,92.58
2022-11-17T06:16:44.496Z,92.54
2022-11-17T06:17:44.496Z,92.51
2022-11-17T06:18:44.484Z,92.48
2022-11-17T06:19:44.454Z,92.42
2022-11-17T06:20:44.458Z,92.42
2022-11-17T06:22:10.492Z,92.39
2022-11-17T06:22:48.330Z,92.36
2022-11-17T06:23:44.440Z,92.36
2022-11-17T06:24:44.457Z,92.33
2022-11-17T06:25:44.413Z,92.32
2022-11-17T06:26:44.410Z,92.33
2022-11-17T06:27:44.404Z,92.33
2022-11-17T06:28:44.386Z,92.33
2022-11-17T06:29:45.196Z,92.34
2022-11-17T06:30:44.344Z,92.34
2022-11-17T06:31:44.345Z,92.34
2022-11-17T06:32:44.338Z,92.33
2022-11-17T06:33:44.370Z,92.33
2022-11-17T06:34:44.314Z,92.32
2022-11-17T06:35:44.315Z,92.31
2022-11-17T06:36:44.287Z,92.31
2022-11-17T06:37:44.299Z,92.30
2022-11-17T06:38:44.301Z,92.30
2022-11-17T06:39:44.258Z,92.31
2022-11-17T06:40:44.287Z,92.32
2022-11-17T06:41:44.242Z,92.32
2022-11-17T06:42:44.260Z,92.33
2022-11-17T06:43:44.273Z,92.33
2022-11-17T06:44:44.231Z,92.34
2022-11-17T06:45:44.219Z,92.37
2022-11-17T06:46:48.846Z,92.37
2022-11-17T06:47:44.214Z,92.37
2022-11-17T06:48:44.192Z,92.35
2022-11-17T06:49:44.219Z,92.36
2022-11-17T06:50:44.169Z,92.36
2022-11-17T06:51:45.544Z,92.36
2022-11-17T06:52:44.184Z,92.38
2022-11-17T06:53:44.190Z,92.40
2022-11-17T06:54:44.156Z,92.39
2022-11-17T06:55:44.198Z,92.40
2022-11-17T06:56:44.154Z,92.37
2022-11-17T06:57:46.617Z,92.37
2022-11-17T06:58:44.102Z,92.34
2022-11-17T06:59:44.121Z,92.34
2022-11-17T07:00:44.193Z,92.35
2022-11-17T07:01:44.128Z,92.34
2022-11-17T07:02:44.125Z,92.35
2022-11-17T07:03:44.097Z,92.33
2022-11-17T07:04:44.052Z,92.32
2022-11-17T07:05:44.087Z,92.32
2022-11-17T07:06:44.043Z,92.32
2022-11-17T07:07:44.046Z,92.33
2022-11-17T07:08:44.022Z,92.34
2022-11-17T07:09:44.035Z,92.34
2022-11-17T07:10:49.142Z,92.34
2022-11-17T07:11:44.030Z,92.35
2022-11-17T07:12:44.004Z,92.35
2022-11-17T07:13:43.990Z,92.34
2022-11-17T07:14:43.960Z,92.34
2022-11-17T07:15:44.021Z,92.33
2022-11-17T07:16:43.949Z,92.33
2022-11-17T07:17:44.042Z,92.30
2022-11-17T07:18:43.921Z,92.29
2022-11-17T07:19:43.927Z,92.25
2022-11-17T07:20:44.143Z,92.23
2022-11-17T07:21:43.920Z,92.22
2022-11-17T07:22:43.891Z,92.20
2022-11-17T07:23:43.906Z,92.16
2022-11-17T07:24:43.852Z,92.15
2022-11-17T07:25:43.887Z,92.15
2022-11-17T07:26:43.847Z,92.13
2022-11-17T07:27:43.882Z,92.15
2022-11-17T07:28:43.851Z,92.15
2022-11-17T07:29:43.835Z,92.18
2022-11-17T07:30:43.790Z,92.18
2022-11-17T07:31:43.826Z,92.19
2022-11-17T07:32:43.757Z,92.18
2022-11-17T07:33:43.768Z,92.19
2022-11-17T07:34:43.767Z,92.20
2022-11-17T07:35:43.753Z,92.16
2022-11-17T07:36:43.738Z,92.14
2022-11-17T07:37:43.727Z,92.15
2022-11-17T07:38:43.693Z,92.13
2022-11-17T07:39:43.731Z,92.10
2022-11-17T07:40:43.689Z,92.08
2022-11-17T07:41:43.772Z,92.07
2022-11-17T07:42:43.683Z,92.02
2022-11-17T07:43:43.683Z,91.98
2022-11-17T07:44:43.683Z,91.95
2022-11-17T07:45:43.645Z,91.93
2022-11-17T07:46:43.683Z,91.91
2022-11-17T07:47:43.629Z,91.84
2022-11-17T07:48:43.653Z,91.83
2022-11-17T07:49:43.661Z,91.82
2022-11-17T07:50:43.633Z,91.77
2022-11-17T07:51:43.638Z,91.74
2022-11-17T07:52:43.649Z,91.77
2022-11-17T07:53:43.610Z,91.77
2022-11-17T07:54:43.573Z,91.79
2022-11-17T07:55:43.552Z,91.78
2022-11-17T07:56:43.572Z,91.73
2022-11-17T07:57:43.506Z,91.70
2022-11-17T07:58:43.538Z,91.72
2022-11-17T07:59:43.528Z,91.69
2022-11-17T08:00:43.584Z,91.63
2022-11-17T08:01:43.502Z,91.61
2022-11-17T08:02:43.511Z,91.59
2022-11-17T08:03:43.510Z,91.56
2022-11-17T08:04:43.462Z,91.58
2022-11-17T08:05:43.950Z,91.56
2022-11-17T08:06:43.482Z,91.57
2022-11-17T08:07:43.471Z,91.54
2022-11-17T08:08:43.450Z,91.56
2022-11-17T08:09:43.391Z,91.50
2022-11-17T08:10:43.468Z,91.51
2022-11-17T08:11:43.396Z,91.50
2022-11-17T08:12:43.412Z,91.44
2022-11-17T08:13:43.350Z,91.35
2022-11-17T08:14:43.367Z,91.31
2022-11-17T08:15:43.876Z,91.26
2022-11-17T08:16:43.380Z,91.15
2022-11-17T08:17:43.330Z,91.09
2022-11-17T08:18:48.832Z,90.98
2022-11-17T08:19:43.320Z,90.89
2022-11-17T08:20:43.328Z,90.75
2022-11-17T08:21:43.322Z,90.55
2022-11-17T08:22:43.280Z,90.44
2022-11-17T08:23:43.298Z,90.34
2022-11-17T08:24:43.290Z,90.21
2022-11-17T08:25:43.384Z,90.20
2022-11-17T08:26:43.287Z,90.29
2022-11-17T08:27:43.245Z,90.25
2022-11-17T08:28:43.329Z,90.11
2022-11-17T08:29:43.233Z,90.14
2022-11-17T08:30:43.225Z,90.11
2022-11-17T08:31:43.225Z,90.06
2022-11-17T08:32:43.212Z,89.89
2022-11-17T08:33:43.177Z,89.94
2022-11-17T08:34:43.190Z,90.01
2022-11-17T08:35:43.155Z,90.09
2022-11-17T08:36:43.413Z,90.29
2022-11-17T08:37:43.163Z,90.39
2022-11-17T08:38:43.191Z,90.40
2022-11-17T08:39:43.118Z,90.31
2022-11-17T08:40:43.125Z,90.31
2022-11-17T08:41:43.154Z,90.39
2022-11-17T08:42:43.122Z,90.30
2022-11-17T08:43:43.082Z,90.07
2022-11-17T08:44:43.116Z,90.08
2022-11-17T08:45:43.082Z,90.16
2022-11-17T08:46:43.080Z,90.28
2022-11-17T08:47:43.052Z,90.37
2022-11-17T08:48:43.089Z,90.44
2022-11-17T08:49:43.035Z,90.42
2022-11-17T08:50:43.003Z,90.40
2022-11-17T08:51:43.123Z,90.45
2022-11-17T08:52:43.059Z,90.52
2022-11-17T08:53:42.978Z,90.55
2022-11-17T08:54:43.044Z,90.45
2022-11-17T08:55:43.085Z,90.40
2022-11-17T08:56:43.003Z,90.44
2022-11-17T08:57:42.935Z,90.41
2022-11-17T08:58:42.949Z,90.30
2022-11-17T08:59:42.917Z,90.37
2022-11-17T09:00:43.067Z,90.38
2022-11-17T09:01:49.387Z,90.43
2022-11-17T09:02:42.904Z,90.40
2022-11-17T09:03:42.874Z,90.34
2022-11-17T09:04:43.111Z,90.28
2022-11-17T09:05:42.845Z,90.39
2022-11-17T09:06:42.844Z,90.46
2022-11-17T09:07:43.030Z,90.40
2022-11-17T09:08:56.028Z,90.45
2022-11-17T09:09:42.873Z,90.53
2022-11-17T09:10:42.838Z,90.48
2022-11-17T09:11:42.787Z,90.40
2022-11-17T09:12:42.794Z,90.25
2022-11-17T09:13:42.743Z,90.27
2022-11-17T09:14:42.781Z,90.01
2022-11-17T09:15:42.736Z,89.99
2022-11-17T09:16:42.766Z,89.94
2022-11-17T09:17:42.715Z,89.87
2022-11-17T09:18:42.776Z,89.72
2022-11-17T09:19:42.750Z,89.40
2022-11-17T09:20:45.706Z,89.31
2022-11-17T09:21:42.657Z,89.28
2022-11-17T09:22:42.722Z,89.26
2022-11-17T09:23:42.665Z,89.35
2022-11-17T09:24:42.703Z,89.28
2022-11-17T09:25:42.639Z,89.14
2022-11-17T09:26:42.636Z,89.17
2022-11-17T09:27:42.602Z,89.09
2022-11-17T09:28:42.625Z,89.17
2022-11-17T09:29:42.576Z,88.95
2022-11-17T09:30:42.608Z,89.28
2022-11-17T09:31:42.735Z,89.32
2022-11-17T09:32:42.615Z,89.34
2022-11-17T09:33:42.646Z,89.35
2022-11-17T09:34:42.607Z,89.15
2022-11-17T09:35:42.555Z,88.96
2022-11-17T09:36:42.573Z,88.83
2022-11-17T09:37:42.526Z,88.84
2022-11-17T09:38:42.520Z,88.78
2022-11-17T09:39:42.487Z,88.82
2022-11-17T09:40:42.497Z,88.87
2022-11-17T09:41:42.469Z,88.81
2022-11-17T09:42:42.498Z,88.79
2022-11-17T09:43:42.445Z,88.67
2022-11-17T09:44:42.467Z,88.64
2022-11-17T09:45:42.420Z,88.69
2022-11-17T09:46:42.472Z,88.61
2022-11-17T09:47:42.801Z,88.64
2022-11-17T09:48:42.429Z,88.51
2022-11-17T09:49:42.424Z,88.37
2022-11-17T09:50:42.435Z,88.51
2022-11-17T09:51:42.654Z,88.56
2022-11-17T09:52:42.401Z,88.62
2022-11-17T09:53:42.396Z,88.58
2022-11-17T09:54:42.420Z,88.75
2022-11-17T09:55:42.346Z,88.58
2022-11-17T09:56:42.470Z,88.48
2022-11-17T09:57:42.357Z,88.27
2022-11-17T09:58:42.326Z,88.17
2022-11-17T09:59:42.317Z,88.11
2022-11-17T10:00:42.351Z,88.11
2022-11-17T10:01:42.395Z,88.10
2022-11-17T10:02:42.278Z,88.08
2022-11-17T10:03:46.058Z,88.03
2022-11-17T10:04:42.254Z,87.89
2022-11-17T10:05:42.236Z,87.97
2022-11-17T10:06:42.255Z,87.95
2022-11-17T10:07:42.208Z,87.64
2022-11-17T10:08:42.218Z,87.75
2022-11-17T10:09:42.186Z,87.68
2022-11-17T10:10:42.203Z,87.83
2022-11-17T10:11:42.178Z,87.81
2022-11-17T10:12:42.197Z,87.65
2022-11-17T10:13:42.175Z,87.62
2022-11-17T10:14:42.372Z,87.36
2022-11-17T10:15:42.257Z,87.37
2022-11-17T10:16:42.177Z,87.27
2022-11-17T10:17:42.230Z,87.36
2022-11-17T10:18:42.158Z,87.41
2022-11-17T10:19:42.100Z,87.50
2022-11-17T10:20:42.355Z,87.29
2022-11-17T10:21:42.132Z,87.10
2022-11-17T10:22:42.159Z,87.10
2022-11-17T10:23:46.446Z,87.00
2022-11-17T10:24:42.098Z,86.72
2022-11-17T10:25:42.034Z,86.74
2022-11-17T10:26:42.088Z,86.61
2022-11-17T10:27:42.014Z,86.53
2022-11-17T10:28:42.043Z,86.62
2022-11-17T10:29:42.067Z,86.66
2022-11-17T10:30:42.016Z,86.37
2022-11-17T10:31:41.983Z,86.50
2022-11-17T10:32:47.872Z,86.46
2022-11-17T10:33:41.956Z,86.53
2022-11-17T10:34:42.104Z,86.49
2022-11-17T10:35:41.928Z,86.16
2022-11-17T10:36:42.050Z,85.97
2022-11-17T10:37:41.914Z,86.45
2022-11-17T10:38:42.144Z,86.18
2022-11-17T10:39:41.900Z,86.02
2022-11-17T10:40:42.009Z,85.65
2022-11-17T10:41:42.030Z,85.70
2022-11-17T10:42:41.886Z,85.84
2022-11-17T10:43:41.872Z,85.92
2022-11-17T10:44:41.856Z,86.06
2022-11-17T10:45:41.842Z,86.28
2022-11-17T10:46:46.484Z,86.78
2022-11-17T10:47:41.817Z,87.08
2022-11-17T10:48:41.840Z,87.17
2022-11-17T10:49:41.853Z,87.17
2022-11-17T10:50:41.838Z,86.97
2022-11-17T10:51:41.912Z,86.97
2022-11-17T10:52:41.809Z,87.01
2022-11-17T10:53:46.287Z,87.09
2022-11-17T10:54:41.769Z,86.89
2022-11-17T10:55:41.765Z,86.95
2022-11-17T10:56:41.777Z,86.74
2022-11-17T10:57:41.791Z,86.32
2022-11-17T10:58:41.755Z,86.25
2022-11-17T10:59:41.691Z,85.75
2022-11-17T11:00:41.765Z,85.57
2022-11-17T11:01:41.866Z,85.52
2022-11-17T11:02:41.680Z,84.73
2022-11-17T11:03:41.689Z,84.53
2022-11-17T11:04:41.715Z,84.09
2022-11-17T11:05:41.670Z,84.25
2022-11-17T11:06:41.652Z,84.28
2022-11-17T11:07:41.616Z,83.79
2022-11-17T11:08:41.645Z,83.28
2022-11-17T11:09:41.674Z,82.64
2022-11-17T11:10:41.606Z,82.40
2022-11-17T11:11:41.590Z,82.79
2022-11-17T11:12:41.576Z,83.26
2022-11-17T11:13:41.556Z,83.07
2022-11-17T11:14:41.732Z,83.00
2022-11-17T11:15:41.540Z,82.49
2022-11-17T11:16:46.685Z,82.36
2022-11-17T11:17:41.550Z,82.65
2022-11-17T11:18:41.518Z,82.38
2022-11-17T11:19:41.522Z,81.63
2022-11-17T11:20:41.533Z,81.58
2022-11-17T11:21:41.490Z,81.75
2022-11-17T11:22:41.500Z,79.61
2022-11-17T11:23:41.463Z,80.54
2022-11-17T11:24:41.485Z,81.26
2022-11-17T11:25:41.469Z,81.17
2022-11-17T11:26:41.460Z,81.40
2022-11-17T11:27:41.491Z,80.19
2022-11-17T11:28:46.982Z,77.76
2022-11-17T11:29:41.385Z,77.52
2022-11-17T11:30:41.448Z,78.16
2022-11-17T11:31:41.371Z,77.36
2022-11-17T11:32:41.408Z,76.00
2022-11-17T11:33:41.416Z,75.70
2022-11-17T11:34:41.362Z,74.74
2022-11-17T11:35:41.336Z,74.87
2022-11-17T11:36:41.399Z,74.43
2022-11-17T11:37:41.336Z,73.50
2022-11-17T11:38:41.334Z,74.05
2022-11-17T11:39:41.341Z,71.61
2022-11-17T11:40:41.330Z,70.65
2022-11-17T11:41:41.268Z,70.57
2022-11-17T11:42:41.319Z,70.34
2022-11-17T11:43:41.248Z,71.23
2022-11-17T11:44:41.280Z,68.87
2022-11-17T11:45:41.256Z,68.86
2022-11-17T11:46:41.405Z,68.78
2022-11-17T11:47:41.211Z,68.40
2022-11-17T11:48:41.233Z,68.09
2022-11-17T11:49:41.176Z,68.41
2022-11-17T11:50:41.971Z,68.43
2022-11-17T11:51:41.231Z,68.65
2022-11-17T11:52:41.192Z,68.87
2022-11-17T11:53:41.145Z,67.66
2022-11-17T11:54:44.892Z,66.74
2022-11-17T11:55:41.276Z,66.55
2022-11-17T11:56:41.111Z,67.43
2022-11-17T11:57:41.151Z,66.85
2022-11-17T11:58:41.123Z,66.59
2022-11-17T11:59:41.100Z,67.00
2022-11-17T12:00:41.089Z,66.62
2022-11-17T12:01:41.434Z,66.10
2022-11-17T12:02:41.491Z,65.26
2022-11-17T12:03:41.224Z,65.07
2022-11-17T12:04:41.029Z,66.11
2022-11-17T12:05:41.045Z,64.79
2022-11-17T12:06:41.027Z,64.74
2022-11-17T12:07:41.110Z,64.85
2022-11-17T12:08:41.011Z,64.40
2022-11-17T12:09:41.043Z,64.73
2022-11-17T12:10:41.015Z,65.00
2022-11-17T12:11:40.978Z,64.98
2022-11-17T12:12:40.980Z,65.56
2022-11-17T12:13:46.331Z,65.56
2022-11-17T12:14:40.943Z,65.05
2022-11-17T12:15:40.950Z,64.81
2022-11-17T12:16:41.060Z,65.65
2022-11-17T12:17:40.948Z,64.05
2022-11-17T12:18:40.895Z,64.74
2022-11-17T12:19:40.919Z,66.67
2022-11-17T12:20:40.891Z,65.29
2022-11-17T12:21:40.885Z,65.06
2022-11-17T12:22:40.968Z,65.52
2022-11-17T12:23:40.876Z,65.06
2022-11-17T12:24:40.858Z,64.96
2022-11-17T12:25:40.862Z,65.28
2022-11-17T12:26:40.825Z,64.54
2022-11-17T12:27:40.825Z,65.32
2022-11-17T12:28:40.837Z,65.45
2022-11-17T12:29:40.818Z,65.82
2022-11-17T12:30:40.812Z,65.24
2022-11-17T12:31:40.855Z,65.40
2022-11-17T12:32:40.752Z,65.39
2022-11-17T12:33:40.778Z,65.15
2022-11-17T12:34:40.734Z,64.53
2022-11-17T12:35:40.806Z,64.42
2022-11-17T12:36:40.789Z,63.29
2022-11-17T12:37:40.722Z,63.56
2022-11-17T12:38:40.739Z,63.36
2022-11-17T12:39:40.705Z,63.93
2022-11-17T12:40:40.699Z,63.33
2022-11-17T12:41:40.767Z,62.19
2022-11-17T12:42:40.653Z,63.10
2022-11-17T12:43:40.707Z,61.93
2022-11-17T12:44:40.631Z,61.70
2022-11-17T12:45:42.041Z,61.99
2022-11-17T12:46:40.635Z,62.62
2022-11-17T12:47:40.694Z,62.43
2022-11-17T12:48:40.817Z,62.73
2022-11-17T12:49:40.633Z,62.42
2022-11-17T12:50:40.606Z,61.76
2022-11-17T12:51:40.594Z,60.46
2022-11-17T12:52:40.632Z,60.39